createdAt,value
2019-03-21T00:02:28.155Z,85.30
2019-03-21T00:04:57.830Z,85.40
2019-03-21T00:07:28.489Z,85.90
2019-03-21T00:10:01.019Z,85.80
2019-03-21T00:12:30.609Z,85.70
2019-03-21T00:15:03.282Z,85.60
2019-03-21T00:17:35.813Z,86.00
2019-03-21T00:20:08.448Z,86.00
2019-03-21T00:22:37.902Z,86.10
2019-03-21T00:25:10.531Z,85.80
2019-03-21T00:27:40.045Z,86.10
2019-03-21T00:30:14.688Z,85.50
2019-03-21T00:32:44.245Z,85.30
2019-03-21T00:35:13.794Z,85.40
2019-03-21T00:37:43.446Z,85.70
2019-03-21T00:40:16.280Z,85.00
2019-03-21T00:42:46.635Z,86.10
2019-03-21T00:45:17.200Z,85.10
2019-03-21T00:47:47.354Z,85.10
2019-03-21T00:50:20.090Z,84.80
2019-03-21T00:52:52.156Z,84.80
2019-03-21T00:55:22.367Z,84.80
2019-03-21T00:57:53.626Z,84.60
2019-03-21T01:00:26.546Z,84.90
2019-03-21T01:02:56.826Z,83.70
2019-03-21T01:05:28.495Z,84.60
2019-03-21T01:07:58.225Z,83.90
2019-03-21T01:10:30.144Z,83.80
2019-03-21T01:13:00.009Z,84.40
2019-03-21T01:15:29.823Z,83.50
2019-03-21T01:17:59.539Z,83.80
2019-03-21T01:20:29.227Z,83.10
2019-03-21T01:22:58.972Z,83.60
2019-03-21T01:25:31.987Z,83.30
2019-03-21T01:28:01.795Z,83.30
2019-03-21T01:30:31.529Z,83.90
2019-03-21T01:33:01.295Z,84.00
2019-03-21T01:35:31.192Z,84.20
2019-03-21T01:38:00.900Z,84.00
2019-03-21T01:40:33.771Z,84.50
2019-03-21T01:43:03.542Z,84.40
2019-03-21T01:45:33.277Z,84.20
2019-03-21T01:48:03.126Z,84.10
2019-03-21T01:50:36.513Z,84.60
2019-03-21T01:53:06.431Z,84.50
2019-03-21T01:55:36.201Z,84.70
2019-03-21T01:58:06.021Z,84.60
2019-03-21T02:00:38.586Z,84.40
2019-03-21T02:03:08.440Z,85.20
2019-03-21T02:05:38.313Z,85.30
2019-03-21T02:08:08.096Z,85.10
2019-03-21T02:10:37.926Z,85.00
2019-03-21T02:13:07.676Z,84.90
2019-03-21T02:15:37.501Z,84.90
2019-03-21T02:18:07.206Z,84.40
2019-03-21T02:20:36.954Z,84.60
2019-03-21T02:23:06.690Z,84.30
2019-03-21T02:25:38.873Z,85.20
2019-03-21T02:28:08.566Z,84.40
2019-03-21T02:30:39.497Z,84.40
2019-03-21T02:33:12.222Z,84.30
2019-03-21T02:35:41.920Z,84.10
2019-03-21T02:38:11.779Z,83.00
2019-03-21T02:40:43.445Z,84.60
2019-03-21T02:43:13.321Z,84.20
2019-03-21T02:45:43.035Z,84.50
2019-03-21T02:48:13.036Z,83.90
2019-03-21T02:50:44.729Z,84.00
2019-03-21T02:53:14.537Z,83.70
2019-03-21T02:55:44.348Z,83.70
2019-03-21T02:58:14.085Z,83.20
2019-03-21T03:00:45.681Z,83.70
2019-03-21T03:03:15.501Z,84.00
2019-03-21T03:05:45.413Z,84.80
2019-03-21T03:08:15.182Z,83.60
2019-03-21T03:10:48.000Z,83.70
2019-03-21T03:13:17.811Z,83.50
2019-03-21T03:15:47.531Z,83.20
2019-03-21T03:18:18.932Z,83.30
2019-03-21T03:20:48.791Z,83.10
2019-03-21T03:23:18.643Z,84.20
2019-03-21T03:25:50.820Z,83.90
2019-03-21T03:28:20.883Z,84.10
2019-03-21T03:30:52.899Z,83.60
2019-03-21T03:33:22.651Z,84.40
2019-03-21T03:35:52.341Z,83.70
2019-03-21T03:38:23.078Z,84.00
2019-03-21T03:40:55.662Z,84.40
2019-03-21T03:43:25.377Z,84.00
2019-03-21T03:45:55.249Z,84.60
2019-03-21T03:48:26.820Z,83.90
2019-03-21T03:50:56.600Z,84.60
2019-03-21T03:53:26.408Z,83.50
2019-03-21T03:55:56.108Z,83.90
2019-03-21T03:58:27.965Z,83.70
2019-03-21T04:00:57.718Z,84.00
2019-03-21T04:03:28.387Z,84.50
2019-03-21T04:05:58.242Z,84.50
2019-03-21T04:08:28.108Z,84.80
2019-03-21T04:10:58.648Z,84.40
2019-03-21T04:13:28.318Z,84.10
2019-03-21T04:15:58.164Z,84.80
2019-03-21T04:18:27.936Z,84.80
2019-03-21T04:21:00.692Z,84.50
2019-03-21T04:23:30.433Z,85.00
2019-03-21T04:26:04.404Z,85.40
2019-03-21T04:28:34.488Z,85.80
2019-03-21T04:31:04.209Z,86.20
2019-03-21T04:33:33.722Z,86.20
2019-03-21T04:36:03.189Z,86.30
2019-03-21T04:38:32.803Z,86.60
2019-03-21T04:41:02.480Z,86.80
2019-03-21T04:43:32.020Z,86.70
2019-03-21T04:46:03.655Z,86.60
2019-03-21T04:48:32.714Z,86.70
2019-03-21T04:51:02.430Z,86.90
2019-03-21T04:53:31.890Z,86.90
2019-03-21T04:56:01.414Z,87.40
2019-03-21T04:58:30.904Z,87.50
2019-03-21T05:01:00.556Z,87.00
2019-03-21T05:03:31.712Z,87.70
2019-03-21T05:06:01.293Z,87.40
2019-03-21T05:08:30.716Z,87.50
2019-03-21T05:11:00.229Z,86.90
2019-03-21T05:13:29.850Z,87.10
2019-03-21T05:15:59.408Z,87.60
2019-03-21T05:18:31.988Z,87.30
2019-03-21T05:21:02.781Z,87.40
2019-03-21T05:23:32.317Z,87.80
2019-03-21T05:26:03.956Z,87.30
2019-03-21T05:28:33.142Z,87.90
2019-03-21T05:31:05.656Z,88.10
2019-03-21T05:33:35.156Z,87.70
2019-03-21T05:36:05.263Z,87.40
2019-03-21T05:38:34.668Z,88.30
2019-03-21T05:41:04.222Z,87.70
2019-03-21T05:43:36.944Z,87.90
2019-03-21T05:46:06.528Z,88.00
2019-03-21T05:48:36.116Z,88.30
2019-03-21T05:51:05.770Z,88.70
2019-03-21T05:53:35.325Z,88.10
2019-03-21T05:56:06.109Z,88.30
2019-03-21T05:58:35.693Z,88.10
2019-03-21T06:01:08.335Z,89.20
2019-03-21T06:03:40.990Z,88.70
2019-03-21T06:06:13.623Z,88.40
2019-03-21T06:08:43.094Z,88.90
2019-03-21T06:11:12.566Z,89.30
2019-03-21T06:13:42.075Z,89.00
2019-03-21T06:16:11.837Z,89.50
2019-03-21T06:18:42.608Z,89.60
2019-03-21T06:21:15.064Z,89.60
2019-03-21T06:23:47.588Z,89.60
2019-03-21T06:26:18.260Z,89.80
2019-03-21T06:28:47.813Z,89.50
2019-03-21T06:31:17.257Z,90.20
2019-03-21T06:33:46.650Z,90.10
2019-03-21T06:36:16.180Z,90.00
2019-03-21T06:38:45.620Z,90.10
2019-03-21T06:41:15.070Z,89.60
2019-03-21T06:43:44.600Z,89.90
2019-03-21T06:46:14.125Z,89.60
2019-03-21T06:48:43.639Z,90.00
2019-03-21T06:51:13.114Z,90.10
2019-03-21T06:53:42.663Z,89.90
2019-03-21T06:56:12.278Z,89.70
2019-03-21T06:58:41.744Z,90.10
2019-03-21T07:01:11.207Z,90.20
2019-03-21T07:03:40.672Z,90.20
2019-03-21T07:06:10.175Z,89.80
2019-03-21T07:08:39.887Z,89.60
2019-03-21T07:11:22.234Z,90.10
2019-03-21T07:13:51.759Z,90.40
2019-03-21T07:16:21.305Z,90.50
2019-03-21T07:18:50.911Z,90.40
2019-03-21T07:21:20.372Z,90.20
2019-03-21T07:23:49.858Z,90.70
2019-03-21T07:26:19.268Z,90.40
2019-03-21T07:28:48.875Z,90.30
2019-03-21T07:31:19.531Z,90.50
2019-03-21T07:33:49.024Z,90.60
2019-03-21T07:36:18.561Z,90.20
2019-03-21T07:38:48.050Z,90.40
2019-03-21T07:41:17.587Z,90.40
2019-03-21T07:43:47.214Z,90.90
2019-03-21T07:46:16.730Z,90.90
2019-03-21T07:48:46.225Z,90.40
2019-03-21T07:51:15.644Z,90.30
2019-03-21T07:53:45.255Z,90.50
2019-03-21T07:56:14.758Z,90.50
2019-03-21T07:58:44.240Z,90.30
2019-03-21T08:01:13.831Z,90.10
2019-03-21T08:03:43.305Z,90.20
2019-03-21T08:06:12.768Z,90.50
2019-03-21T08:08:42.212Z,90.10
2019-03-21T08:11:11.747Z,90.70
2019-03-21T08:13:41.605Z,90.00
2019-03-21T08:16:11.073Z,90.20
2019-03-21T08:18:40.616Z,90.00
2019-03-21T08:21:10.146Z,90.40
2019-03-21T08:23:39.555Z,90.30
2019-03-21T08:26:08.935Z,90.00
2019-03-21T08:28:38.346Z,89.40
2019-03-21T08:31:07.077Z,89.90
2019-03-21T08:33:36.655Z,90.10
2019-03-21T08:36:06.228Z,89.50
2019-03-21T08:38:36.896Z,89.10
2019-03-21T08:41:06.476Z,89.80
2019-03-21T08:43:36.005Z,90.20
2019-03-21T08:46:05.570Z,90.10
2019-03-21T08:48:35.197Z,90.20
2019-03-21T08:51:08.719Z,90.20
2019-03-21T08:53:36.057Z,90.30
2019-03-21T08:56:06.556Z,89.60
2019-03-21T08:58:36.110Z,90.20
2019-03-21T09:01:05.668Z,89.70
2019-03-21T09:03:35.338Z,89.30
2019-03-21T09:06:05.458Z,90.00
2019-03-21T09:08:35.058Z,89.50
2019-03-21T09:11:04.713Z,90.30
2019-03-21T09:13:34.251Z,89.90
2019-03-21T09:16:04.081Z,90.30
2019-03-21T09:18:33.582Z,90.00
2019-03-21T09:21:03.059Z,89.70
2019-03-21T09:23:32.834Z,90.20
2019-03-21T09:26:02.255Z,89.20
2019-03-21T09:28:31.963Z,89.30
2019-03-21T09:31:01.574Z,88.50
2019-03-21T09:33:31.182Z,88.60
2019-03-21T09:36:00.675Z,90.30
2019-03-21T09:38:30.253Z,89.20
2019-03-21T09:40:59.740Z,90.20
2019-03-21T09:43:29.158Z,89.20
2019-03-21T09:45:58.634Z,90.20
2019-03-21T09:48:28.194Z,90.50
2019-03-21T09:50:57.719Z,90.40
2019-03-21T09:53:27.163Z,89.20
2019-03-21T09:55:57.129Z,88.90
2019-03-21T09:58:26.754Z,90.00
2019-03-21T10:00:56.263Z,88.50
2019-03-21T10:03:25.653Z,89.10
2019-03-21T10:05:55.208Z,90.70
2019-03-21T10:08:24.672Z,89.50
2019-03-21T10:10:54.155Z,90.50
2019-03-21T10:13:23.655Z,88.80
2019-03-21T10:15:53.102Z,86.70
2019-03-21T10:18:22.527Z,90.00
2019-03-21T10:20:52.006Z,89.80
2019-03-21T10:23:21.556Z,87.40
2019-03-21T10:25:51.063Z,88.90
2019-03-21T10:28:20.643Z,87.60
2019-03-21T10:30:50.191Z,87.00
2019-03-21T10:33:19.716Z,88.50
2019-03-21T10:35:49.114Z,87.40
2019-03-21T10:38:18.618Z,87.90
2019-03-21T10:40:48.115Z,85.80
2019-03-21T10:43:17.654Z,85.60
2019-03-21T10:45:48.292Z,86.90
2019-03-21T10:48:17.767Z,86.00
2019-03-21T10:50:47.367Z,85.80
2019-03-21T10:53:16.901Z,85.50
2019-03-21T10:55:46.293Z,89.00
2019-03-21T10:58:15.789Z,86.50
2019-03-21T11:00:46.337Z,88.00
2019-03-21T11:03:15.755Z,84.90
2019-03-21T11:05:45.274Z,88.80
2019-03-21T11:08:14.824Z,86.50
2019-03-21T11:10:47.013Z,86.10
2019-03-21T11:13:15.531Z,89.30
2019-03-21T11:15:45.632Z,85.50
2019-03-21T11:18:15.126Z,86.40
2019-03-21T11:20:44.596Z,87.50
2019-03-21T11:23:14.106Z,87.40
2019-03-21T11:25:43.632Z,84.20
2019-03-21T11:28:13.156Z,87.80
2019-03-21T11:30:43.848Z,86.00
2019-03-21T11:33:13.554Z,83.60
2019-03-21T11:35:43.244Z,84.10
2019-03-21T11:38:12.753Z,82.20
2019-03-21T11:40:42.353Z,82.50
2019-03-21T11:43:12.161Z,84.90
2019-03-21T11:45:41.836Z,84.90
2019-03-21T11:48:11.336Z,87.90
2019-03-21T11:50:40.803Z,84.60
2019-03-21T11:53:10.320Z,85.30
2019-03-21T11:55:39.924Z,83.50
2019-03-21T11:58:09.619Z,85.30
2019-03-21T12:00:43.851Z,83.00
2019-03-21T12:03:12.979Z,84.80
2019-03-21T12:05:42.591Z,84.60
2019-03-21T12:08:12.201Z,83.50
2019-03-21T12:10:41.712Z,85.60
2019-03-21T12:13:11.296Z,85.30
2019-03-21T12:15:40.802Z,84.50
2019-03-21T12:18:10.402Z,85.10
2019-03-21T12:20:39.934Z,86.20
2019-03-21T12:23:09.405Z,84.30
2019-03-21T12:25:38.872Z,86.40
2019-03-21T12:28:08.362Z,84.90
2019-03-21T12:30:39.529Z,84.30
2019-03-21T12:33:09.074Z,81.80
2019-03-21T12:35:38.733Z,84.10
2019-03-21T12:38:08.652Z,87.40
2019-03-21T12:40:38.363Z,88.30
2019-03-21T12:43:08.898Z,87.50
2019-03-21T12:45:38.323Z,82.90
2019-03-21T12:48:07.985Z,82.90
2019-03-21T12:50:37.373Z,82.20
2019-03-21T12:53:07.520Z,85.70
2019-03-21T12:55:37.013Z,84.30
2019-03-21T12:58:06.498Z,81.80
2019-03-21T13:00:37.996Z,83.40
2019-03-21T13:03:07.966Z,82.70
2019-03-21T13:05:37.597Z,83.80
2019-03-21T13:08:07.299Z,83.30
2019-03-21T13:10:36.893Z,83.70
2019-03-21T13:13:07.054Z,81.60
2019-03-21T13:15:36.624Z,82.50
2019-03-21T13:18:06.631Z,80.90
2019-03-21T13:20:36.098Z,83.30
2019-03-21T13:23:05.984Z,83.80
2019-03-21T13:25:35.529Z,83.40
2019-03-21T13:28:05.428Z,84.30
2019-03-21T13:30:35.089Z,82.40
2019-03-21T13:33:05.333Z,80.40
2019-03-21T13:35:34.851Z,80.40
2019-03-21T13:38:04.756Z,79.90
2019-03-21T13:40:34.363Z,79.70
2019-03-21T13:43:04.205Z,81.30
2019-03-21T13:45:33.766Z,82.10
2019-03-21T13:48:03.289Z,80.90
2019-03-21T13:50:32.880Z,79.90
2019-03-21T13:53:06.468Z,80.70
2019-03-21T13:55:33.601Z,82.30
2019-03-21T13:58:03.127Z,81.70
2019-03-21T14:00:32.607Z,82.30
2019-03-21T14:03:02.209Z,82.20
2019-03-21T14:05:31.860Z,81.80
2019-03-21T14:08:01.362Z,80.40
2019-03-21T14:10:32.310Z,80.10
2019-03-21T14:13:03.057Z,79.20
2019-03-21T14:15:32.536Z,80.70
2019-03-21T14:18:02.029Z,80.90
2019-03-21T14:20:31.571Z,80.00
2019-03-21T14:23:02.093Z,79.20
2019-03-21T14:25:31.607Z,79.70
2019-03-21T14:28:01.172Z,79.50
2019-03-21T14:30:30.650Z,80.10
2019-03-21T14:33:00.138Z,79.70
2019-03-21T14:35:29.657Z,79.70
2019-03-21T14:37:59.196Z,79.00
2019-03-21T14:40:28.678Z,79.30
2019-03-21T14:42:59.704Z,79.70
2019-03-21T14:45:29.144Z,80.20
2019-03-21T14:47:58.698Z,80.80
2019-03-21T14:50:28.175Z,78.20
2019-03-21T14:52:57.557Z,78.60
2019-03-21T14:55:26.956Z,79.00
2019-03-21T14:57:56.398Z,78.20
2019-03-21T15:00:25.977Z,80.70
2019-03-21T15:02:55.573Z,78.90
2019-03-21T15:05:25.040Z,78.80
2019-03-21T15:07:54.527Z,79.30
2019-03-21T15:10:24.131Z,78.70
2019-03-21T15:12:53.746Z,78.80
2019-03-21T15:15:23.323Z,78.80
2019-03-21T15:17:52.769Z,79.00
2019-03-21T15:20:22.238Z,80.70
2019-03-21T15:22:51.814Z,78.30
2019-03-21T15:25:21.400Z,78.70
2019-03-21T15:27:51.059Z,78.50
2019-03-21T15:30:21.187Z,80.40
2019-03-21T15:32:50.953Z,82.10
2019-03-21T15:35:20.683Z,81.20
2019-03-21T15:37:50.683Z,80.30
2019-03-21T15:40:20.304Z,80.30
2019-03-21T15:42:49.887Z,80.00
2019-03-21T15:45:23.830Z,80.20
2019-03-21T15:47:50.934Z,81.00
2019-03-21T15:50:23.491Z,79.50
2019-03-21T15:52:53.052Z,79.70
2019-03-21T15:55:22.433Z,80.50
2019-03-21T15:57:51.968Z,81.00
2019-03-21T16:00:24.475Z,79.90
2019-03-21T16:02:54.154Z,80.10
2019-03-21T16:05:43.037Z,79.50
2019-03-21T16:08:12.617Z,80.40
2019-03-21T16:10:42.267Z,79.30
2019-03-21T16:13:11.769Z,79.70
2019-03-21T16:15:41.185Z,79.40
2019-03-21T16:18:10.683Z,79.90
2019-03-21T16:20:40.211Z,80.70
2019-03-21T16:23:09.727Z,81.20
2019-03-21T16:25:39.195Z,81.50
2019-03-21T16:28:08.746Z,80.70
2019-03-21T16:30:38.231Z,82.20
2019-03-21T16:33:08.853Z,82.90
2019-03-21T16:35:38.350Z,82.80
2019-03-21T16:38:07.809Z,83.20
2019-03-21T16:40:37.315Z,83.60
2019-03-21T16:43:06.900Z,84.40
2019-03-21T16:45:36.324Z,84.10
2019-03-21T16:48:08.767Z,83.40
2019-03-21T16:50:37.156Z,83.50
2019-03-21T16:53:06.779Z,83.90
2019-03-21T16:55:36.260Z,84.20
2019-03-21T16:58:05.818Z,85.30
2019-03-21T17:00:35.347Z,86.10
2019-03-21T17:03:05.279Z,86.70
2019-03-21T17:05:34.823Z,87.30
2019-03-21T17:08:11.090Z,87.40
2019-03-21T17:10:35.626Z,88.00
2019-03-21T17:13:06.496Z,87.70
2019-03-21T17:15:36.961Z,87.90
2019-03-21T17:18:06.581Z,88.30
2019-03-21T17:20:36.005Z,88.60
2019-03-21T17:23:06.272Z,87.70
2019-03-21T17:25:35.900Z,87.90
2019-03-21T17:28:05.424Z,88.20
2019-03-21T17:30:34.895Z,88.60
2019-03-21T17:33:04.506Z,88.30
2019-03-21T17:35:34.146Z,87.90
2019-03-21T17:38:04.858Z,88.00
2019-03-21T17:40:34.363Z,88.20
2019-03-21T17:43:03.832Z,88.70
2019-03-21T17:45:33.348Z,89.00
2019-03-21T17:48:02.803Z,89.20
2019-03-21T17:50:32.323Z,89.30
2019-03-21T17:53:01.850Z,89.00
2019-03-21T17:55:31.238Z,89.40
2019-03-21T17:58:00.722Z,89.80
2019-03-21T18:00:31.914Z,90.00
2019-03-21T18:03:01.563Z,90.30
2019-03-21T18:05:31.160Z,90.30
2019-03-21T18:08:00.685Z,90.30
2019-03-21T18:10:32.457Z,90.30
2019-03-21T18:13:02.640Z,90.50
2019-03-21T18:15:32.768Z,90.60
2019-03-21T18:18:02.225Z,90.80
2019-03-21T18:20:31.681Z,90.80
2019-03-21T18:23:01.109Z,90.80
2019-03-21T18:25:31.622Z,90.50
2019-03-21T18:28:01.167Z,90.50
2019-03-21T18:30:30.814Z,90.50
2019-03-21T18:33:00.454Z,90.50
2019-03-21T18:35:30.129Z,90.40
2019-03-21T18:38:00.095Z,90.70
2019-03-21T18:40:29.571Z,90.80
2019-03-21T18:42:59.155Z,90.90
2019-03-21T18:45:28.635Z,90.90
2019-03-21T18:47:58.035Z,90.90
2019-03-21T18:50:27.668Z,90.80
2019-03-21T18:52:57.125Z,90.90
2019-03-21T18:55:26.612Z,90.90
2019-03-21T18:57:56.095Z,90.90
2019-03-21T19:00:25.825Z,90.90
2019-03-21T19:02:55.432Z,90.90
2019-03-21T19:05:24.971Z,90.80
2019-03-21T19:07:54.435Z,90.90
2019-03-21T19:10:24.052Z,90.80
2019-03-21T19:12:53.709Z,90.70
2019-03-21T19:15:23.339Z,90.80
2019-03-21T19:17:52.808Z,90.80
2019-03-21T19:20:24.535Z,91.00
2019-03-21T19:22:56.085Z,90.80
2019-03-21T19:25:25.625Z,90.90
2019-03-21T19:27:55.109Z,90.90
2019-03-21T19:30:24.730Z,91.00
2019-03-21T19:32:54.328Z,91.00
2019-03-21T19:35:23.808Z,91.00
2019-03-21T19:37:53.492Z,90.90
2019-03-21T19:40:23.112Z,91.10
2019-03-21T19:42:52.602Z,91.10
2019-03-21T19:45:22.080Z,91.10
2019-03-21T19:47:51.541Z,91.10
2019-03-21T19:50:21.927Z,91.20
2019-03-21T19:52:51.409Z,91.10
2019-03-21T19:55:30.165Z,91.00
2019-03-21T19:57:52.368Z,91.10
2019-03-21T20:00:23.200Z,91.10
2019-03-21T20:02:52.938Z,91.00
2019-03-21T20:05:23.538Z,91.10
2019-03-21T20:07:53.136Z,91.10
2019-03-21T20:10:25.689Z,91.10
2019-03-21T20:12:54.543Z,91.10
2019-03-21T20:15:24.041Z,91.20
2019-03-21T20:17:54.586Z,91.20
2019-03-21T20:20:24.182Z,91.20
2019-03-21T20:22:53.826Z,91.20
2019-03-21T20:25:23.379Z,91.30
2019-03-21T20:27:52.862Z,91.20
2019-03-21T20:30:22.984Z,91.50
2019-03-21T20:32:52.597Z,91.60
2019-03-21T20:35:22.055Z,91.70
2019-03-21T20:37:51.807Z,91.90
2019-03-21T20:40:21.401Z,91.90
2019-03-21T20:42:50.907Z,92.20
2019-03-21T20:45:20.779Z,92.30
2019-03-21T20:47:50.367Z,92.40
2019-03-21T20:50:19.893Z,92.50
2019-03-21T20:52:49.434Z,92.70
2019-03-21T20:55:19.134Z,92.60
2019-03-21T20:57:48.755Z,92.70
2019-03-21T21:00:21.754Z,92.70
2019-03-21T21:02:52.174Z,92.70
2019-03-21T21:05:23.105Z,92.80
2019-03-21T21:07:53.208Z,92.90
2019-03-21T21:10:22.732Z,93.00
2019-03-21T21:12:53.359Z,93.50
2019-03-21T21:15:22.935Z,93.20
2019-03-21T21:17:52.455Z,93.30
2019-03-21T21:20:22.139Z,93.30
2019-03-21T21:22:51.668Z,93.30
2019-03-21T21:25:21.331Z,93.30
2019-03-21T21:27:51.029Z,93.40
2019-03-21T21:30:21.747Z,93.30
2019-03-21T21:32:51.384Z,93.20
2019-03-21T21:35:21.072Z,93.20
2019-03-21T21:37:50.727Z,93.30
2019-03-21T21:40:20.395Z,93.60
2019-03-21T21:42:49.880Z,93.60
2019-03-21T21:45:20.492Z,93.40
2019-03-21T21:47:50.072Z,93.40
2019-03-21T21:50:19.456Z,93.50
2019-03-21T21:52:48.875Z,93.50
2019-03-21T21:55:18.336Z,93.30
2019-03-21T21:57:47.944Z,93.60
2019-03-21T22:00:19.109Z,93.80
2019-03-21T22:02:48.537Z,93.90
2019-03-21T22:05:18.154Z,93.90
2019-03-21T22:07:47.834Z,93.80
2019-03-21T22:10:17.387Z,93.80
2019-03-21T22:12:47.051Z,93.80
2019-03-21T22:15:16.998Z,94.00
2019-03-21T22:17:46.472Z,93.90
2019-03-21T22:20:16.444Z,94.10
2019-03-21T22:22:45.984Z,94.10
2019-03-21T22:25:15.752Z,94.20
2019-03-21T22:27:45.414Z,94.20
2019-03-21T22:30:17.258Z,94.20
2019-03-21T22:32:46.911Z,94.20
2019-03-21T22:35:16.447Z,94.30
2019-03-21T22:37:46.022Z,94.30
2019-03-21T22:40:17.917Z,94.40
2019-03-21T22:42:47.574Z,94.50
2019-03-21T22:45:18.208Z,94.50
2019-03-21T22:47:50.325Z,94.70
2019-03-21T22:50:19.162Z,94.60
2019-03-21T22:52:48.660Z,94.70
2019-03-21T22:55:18.221Z,94.90
2019-03-21T22:57:47.781Z,94.70
2019-03-21T23:00:21.221Z,94.70
2019-03-21T23:02:52.313Z,94.70
2019-03-21T23:05:22.072Z,94.80
2019-03-21T23:07:51.556Z,94.80
2019-03-21T23:10:21.168Z,94.80
2019-03-21T23:12:50.840Z,94.80
2019-03-21T23:15:21.577Z,94.90
2019-03-21T23:17:51.157Z,94.90
2019-03-21T23:20:20.634Z,95.10
2019-03-21T23:22:50.077Z,95.00
2019-03-21T23:25:19.546Z,95.20
2019-03-21T23:27:49.189Z,95.10
2019-03-21T23:30:19.391Z,95.20
2019-03-21T23:32:48.923Z,95.10
2019-03-21T23:35:18.509Z,95.40
2019-03-21T23:37:48.047Z,95.40
2019-03-21T23:40:17.655Z,95.40
2019-03-21T23:42:48.177Z,95.40
2019-03-21T23:45:19.891Z,95.90
2019-03-21T23:47:49.124Z,95.60
2019-03-21T23:50:18.919Z,95.60
2019-03-21T23:52:48.312Z,95.70
2019-03-21T23:55:17.795Z,95.80
2019-03-21T23:57:47.326Z,95.90
